sensor_id;sensor_type;location;lat;lon;timestamp;P1;durP1;ratioP1;P2;durP2;ratioP2
44746;SDS011;30472;49.490;10.972;2023-04-03T00:01:35;4.90;;;4.53;;
44746;SDS011;30472;49.490;10.972;2023-04-03T00:04:03;5.47;;;4.87;;
44746;SDS011;30472;49.490;10.972;2023-04-03T00:06:30;4.90;;;4.57;;
44746;SDS011;30472;49.490;10.972;2023-04-03T00:08:56;4.67;;;4.40;;
44746;SDS011;30472;49.490;10.972;2023-04-03T00:11:21;4.63;;;4.33;;
44746;SDS011;30472;49.490;10.972;2023-04-03T00:13:47;5.10;;;4.70;;
44746;SDS011;30472;49.490;10.972;2023-04-03T00:16:12;5.33;;;5.03;;
44746;SDS011;30472;49.490;10.972;2023-04-03T00:18:38;5.80;;;5.30;;
44746;SDS011;30472;49.490;10.972;2023-04-03T00:21:05;5.17;;;4.77;;
44746;SDS011;30472;49.490;10.972;2023-04-03T00:23:31;4.97;;;4.57;;
44746;SDS011;30472;49.490;10.972;2023-04-03T00:25:58;4.70;;;4.40;;
44746;SDS011;30472;49.490;10.972;2023-04-03T00:28:23;5.33;;;4.93;;
44746;SDS011;30472;49.490;10.972;2023-04-03T00:30:51;5.43;;;5.13;;
44746;SDS011;30472;49.490;10.972;2023-04-03T00:33:17;5.83;;;5.43;;
44746;SDS011;30472;49.490;10.972;2023-04-03T00:35:46;5.27;;;4.90;;
44746;SDS011;30472;49.490;10.972;2023-04-03T00:38:13;5.97;;;5.63;;
44746;SDS011;30472;49.490;10.972;2023-04-03T00:40:41;7.70;;;4.20;;
44746;SDS011;30472;49.490;10.972;2023-04-03T00:43:13;4.03;;;3.77;;
44746;SDS011;30472;49.490;10.972;2023-04-03T00:45:45;5.17;;;4.73;;
44746;SDS011;30472;49.490;10.972;2023-04-03T00:48:20;5.40;;;4.90;;
44746;SDS011;30472;49.490;10.972;2023-04-03T00:50:53;5.57;;;5.07;;
44746;SDS011;30472;49.490;10.972;2023-04-03T00:53:22;6.33;;;5.77;;
44746;SDS011;30472;49.490;10.972;2023-04-03T00:55:50;5.03;;;4.73;;
44746;SDS011;30472;49.490;10.972;2023-04-03T00:58:17;5.43;;;5.03;;
44746;SDS011;30472;49.490;10.972;2023-04-03T01:00:46;5.47;;;5.07;;
44746;SDS011;30472;49.490;10.972;2023-04-03T01:03:21;5.30;;;5.00;;
44746;SDS011;30472;49.490;10.972;2023-04-03T01:05:46;5.77;;;5.47;;
44746;SDS011;30472;49.490;10.972;2023-04-03T01:08:12;5.53;;;5.13;;
44746;SDS011;30472;49.490;10.972;2023-04-03T01:10:38;5.67;;;5.17;;
44746;SDS011;30472;49.490;10.972;2023-04-03T01:13:16;5.90;;;5.47;;
44746;SDS011;30472;49.490;10.972;2023-04-03T01:15:44;6.47;;;5.97;;
44746;SDS011;30472;49.490;10.972;2023-04-03T01:18:10;6.37;;;5.63;;
44746;SDS011;30472;49.490;10.972;2023-04-03T01:26:02;6.00;;;5.63;;
44746;SDS011;30472;49.490;10.972;2023-04-03T01:28:29;5.10;;;4.80;;
44746;SDS011;30472;49.490;10.972;2023-04-03T01:33:51;5.47;;;5.17;;
44746;SDS011;30472;49.490;10.972;2023-04-03T01:36:18;6.23;;;5.77;;
44746;SDS011;30472;49.490;10.972;2023-04-03T01:38:46;5.67;;;5.37;;
44746;SDS011;30472;49.490;10.972;2023-04-03T01:41:13;5.57;;;5.00;;
44746;SDS011;30472;49.490;10.972;2023-04-03T01:43:38;6.33;;;5.93;;
44746;SDS011;30472;49.490;10.972;2023-04-03T01:46:04;6.00;;;5.60;;
44746;SDS011;30472;49.490;10.972;2023-04-03T01:48:30;4.80;;;4.50;;
44746;SDS011;30472;49.490;10.972;2023-04-03T01:50:55;5.37;;;4.97;;
44746;SDS011;30472;49.490;10.972;2023-04-03T01:53:21;5.33;;;5.03;;
44746;SDS011;30472;49.490;10.972;2023-04-03T01:55:46;4.60;;;4.30;;
44746;SDS011;30472;49.490;10.972;2023-04-03T01:58:13;6.00;;;5.60;;
44746;SDS011;30472;49.490;10.972;2023-04-03T02:00:38;5.87;;;5.47;;
44746;SDS011;30472;49.490;10.972;2023-04-03T02:03:04;8.00;;;5.80;;
44746;SDS011;30472;49.490;10.972;2023-04-03T02:05:29;6.70;;;6.20;;
44746;SDS011;30472;49.490;10.972;2023-04-03T02:07:55;6.43;;;6.03;;
44746;SDS011;30472;49.490;10.972;2023-04-03T02:10:21;6.20;;;5.80;;
44746;SDS011;30472;49.490;10.972;2023-04-03T02:12:47;6.00;;;5.57;;
44746;SDS011;30472;49.490;10.972;2023-04-03T02:15:12;6.13;;;5.83;;
44746;SDS011;30472;49.490;10.972;2023-04-03T02:17:38;5.40;;;5.10;;
44746;SDS011;30472;49.490;10.972;2023-04-03T02:20:03;5.80;;;5.50;;
44746;SDS011;30472;49.490;10.972;2023-04-03T02:22:30;6.63;;;6.03;;
44746;SDS011;30472;49.490;10.972;2023-04-03T02:24:56;6.50;;;5.90;;
44746;SDS011;30472;49.490;10.972;2023-04-03T02:27:21;6.53;;;6.00;;
44746;SDS011;30472;49.490;10.972;2023-04-03T02:29:47;6.70;;;6.30;;
44746;SDS011;30472;49.490;10.972;2023-04-03T02:32:12;6.97;;;6.43;;
44746;SDS011;30472;49.490;10.972;2023-04-03T02:34:38;5.73;;;5.43;;
44746;SDS011;30472;49.490;10.972;2023-04-03T02:37:03;8.27;;;7.50;;
44746;SDS011;30472;49.490;10.972;2023-04-03T02:39:29;5.73;;;5.33;;
44746;SDS011;30472;49.490;10.972;2023-04-03T02:41:55;6.07;;;5.67;;
44746;SDS011;30472;49.490;10.972;2023-04-03T02:44:20;6.27;;;5.87;;
44746;SDS011;30472;49.490;10.972;2023-04-03T02:46:46;6.93;;;6.43;;
44746;SDS011;30472;49.490;10.972;2023-04-03T02:49:11;6.40;;;5.90;;
44746;SDS011;30472;49.490;10.972;2023-04-03T02:51:37;6.80;;;6.30;;
44746;SDS011;30472;49.490;10.972;2023-04-03T02:54:03;7.10;;;6.60;;
44746;SDS011;30472;49.490;10.972;2023-04-03T02:56:28;6.63;;;6.13;;
44746;SDS011;30472;49.490;10.972;2023-04-03T02:58:54;6.63;;;6.13;;
44746;SDS011;30472;49.490;10.972;2023-04-03T03:01:20;7.90;;;5.83;;
44746;SDS011;30472;49.490;10.972;2023-04-03T03:03:45;6.33;;;5.93;;
44746;SDS011;30472;49.490;10.972;2023-04-03T03:06:12;6.07;;;5.73;;
44746;SDS011;30472;49.490;10.972;2023-04-03T03:08:39;8.97;;;8.07;;
44746;SDS011;30472;49.490;10.972;2023-04-03T03:11:05;7.10;;;6.60;;
44746;SDS011;30472;49.490;10.972;2023-04-03T03:13:31;6.53;;;6.00;;
44746;SDS011;30472;49.490;10.972;2023-04-03T03:15:57;7.03;;;6.63;;
44746;SDS011;30472;49.490;10.972;2023-04-03T03:18:23;7.13;;;6.27;;
44746;SDS011;30472;49.490;10.972;2023-04-03T03:20:53;8.00;;;7.40;;
44746;SDS011;30472;49.490;10.972;2023-04-03T03:23:20;6.13;;;5.63;;
44746;SDS011;30472;49.490;10.972;2023-04-03T03:25:47;9.40;;;6.50;;
44746;SDS011;30472;49.490;10.972;2023-04-03T03:28:12;5.87;;;5.37;;
44746;SDS011;30472;49.490;10.972;2023-04-03T03:30:38;7.17;;;6.57;;
44746;SDS011;30472;49.490;10.972;2023-04-03T03:33:03;6.70;;;5.67;;
44746;SDS011;30472;49.490;10.972;2023-04-03T03:35:29;8.33;;;7.63;;
44746;SDS011;30472;49.490;10.972;2023-04-03T03:37:54;7.70;;;7.10;;
44746;SDS011;30472;49.490;10.972;2023-04-03T03:40:20;7.93;;;7.33;;
44746;SDS011;30472;49.490;10.972;2023-04-03T03:42:46;7.20;;;6.70;;
44746;SDS011;30472;49.490;10.972;2023-04-03T03:45:11;7.80;;;6.97;;
44746;SDS011;30472;49.490;10.972;2023-04-03T03:47:37;5.93;;;5.40;;
44746;SDS011;30472;49.490;10.972;2023-04-03T03:50:03;7.93;;;7.17;;
44746;SDS011;30472;49.490;10.972;2023-04-03T03:52:29;9.27;;;7.13;;
44746;SDS011;30472;49.490;10.972;2023-04-03T03:54:55;5.87;;;5.43;;
44746;SDS011;30472;49.490;10.972;2023-04-03T03:57:21;8.20;;;7.53;;
44746;SDS011;30472;49.490;10.972;2023-04-03T03:59:47;9.13;;;6.53;;
44746;SDS011;30472;49.490;10.972;2023-04-03T04:02:13;7.70;;;6.90;;
44746;SDS011;30472;49.490;10.972;2023-04-03T04:04:40;7.73;;;7.17;;
44746;SDS011;30472;49.490;10.972;2023-04-03T04:07:05;7.80;;;7.07;;
44746;SDS011;30472;49.490;10.972;2023-04-03T04:09:31;7.33;;;6.67;;
44746;SDS011;30472;49.490;10.972;2023-04-03T04:11:56;7.97;;;6.27;;
44746;SDS011;30472;49.490;10.972;2023-04-03T04:14:22;7.30;;;6.80;;
44746;SDS011;30472;49.490;10.972;2023-04-03T04:16:48;8.50;;;7.10;;
44746;SDS011;30472;49.490;10.972;2023-04-03T04:19:14;7.70;;;7.00;;
44746;SDS011;30472;49.490;10.972;2023-04-03T04:21:39;8.67;;;6.93;;
44746;SDS011;30472;49.490;10.972;2023-04-03T04:24:06;8.30;;;7.53;;
44746;SDS011;30472;49.490;10.972;2023-04-03T04:26:32;7.00;;;6.30;;
44746;SDS011;30472;49.490;10.972;2023-04-03T04:28:58;9.33;;;6.67;;
44746;SDS011;30472;49.490;10.972;2023-04-03T04:31:25;8.33;;;7.40;;
44746;SDS011;30472;49.490;10.972;2023-04-03T04:33:50;10.17;;;7.03;;
44746;SDS011;30472;49.490;10.972;2023-04-03T04:36:16;7.40;;;6.90;;
44746;SDS011;30472;49.490;10.972;2023-04-03T04:38:42;8.07;;;7.43;;
44746;SDS011;30472;49.490;10.972;2023-04-03T04:41:07;7.77;;;6.10;;
44746;SDS011;30472;49.490;10.972;2023-04-03T04:43:33;7.67;;;6.97;;
44746;SDS011;30472;49.490;10.972;2023-04-03T04:46:03;6.90;;;6.40;;
44746;SDS011;30472;49.490;10.972;2023-04-03T04:48:33;7.77;;;7.10;;
44746;SDS011;30472;49.490;10.972;2023-04-03T04:50:59;6.67;;;6.07;;
44746;SDS011;30472;49.490;10.972;2023-04-03T04:53:25;8.67;;;6.57;;
44746;SDS011;30472;49.490;10.972;2023-04-03T04:55:51;8.63;;;7.00;;
44746;SDS011;30472;49.490;10.972;2023-04-03T04:58:17;7.63;;;6.93;;
44746;SDS011;30472;49.490;10.972;2023-04-03T05:00:43;7.47;;;6.90;;
44746;SDS011;30472;49.490;10.972;2023-04-03T05:03:09;8.80;;;6.40;;
44746;SDS011;30472;49.490;10.972;2023-04-03T05:05:34;6.27;;;5.63;;
44746;SDS011;30472;49.490;10.972;2023-04-03T05:08:00;9.60;;;7.57;;
44746;SDS011;30472;49.490;10.972;2023-04-03T05:10:27;9.03;;;8.20;;
44746;SDS011;30472;49.490;10.972;2023-04-03T05:12:53;8.60;;;7.63;;
44746;SDS011;30472;49.490;10.972;2023-04-03T05:15:18;8.67;;;7.80;;
44746;SDS011;30472;49.490;10.972;2023-04-03T05:17:44;8.67;;;7.07;;
44746;SDS011;30472;49.490;10.972;2023-04-03T05:20:10;8.60;;;8.00;;
44746;SDS011;30472;49.490;10.972;2023-04-03T05:22:36;9.60;;;7.73;;
44746;SDS011;30472;49.490;10.972;2023-04-03T05:25:02;9.30;;;7.17;;
44746;SDS011;30472;49.490;10.972;2023-04-03T05:27:27;7.50;;;6.90;;
44746;SDS011;30472;49.490;10.972;2023-04-03T05:29:53;7.97;;;7.13;;
44746;SDS011;30472;49.490;10.972;2023-04-03T05:32:20;8.37;;;7.57;;
44746;SDS011;30472;49.490;10.972;2023-04-03T05:34:46;8.43;;;7.03;;
44746;SDS011;30472;49.490;10.972;2023-04-03T05:37:11;6.07;;;5.57;;
44746;SDS011;30472;49.490;10.972;2023-04-03T05:39:37;9.90;;;7.03;;
44746;SDS011;30472;49.490;10.972;2023-04-03T05:42:05;7.20;;;6.60;;
44746;SDS011;30472;49.490;10.972;2023-04-03T05:44:31;5.93;;;5.43;;
44746;SDS011;30472;49.490;10.972;2023-04-03T05:46:57;7.83;;;6.53;;
44746;SDS011;30472;49.490;10.972;2023-04-03T05:49:22;7.83;;;6.80;;
44746;SDS011;30472;49.490;10.972;2023-04-03T05:51:48;9.23;;;6.63;;
44746;SDS011;30472;49.490;10.972;2023-04-03T05:54:18;7.03;;;5.90;;
44746;SDS011;30472;49.490;10.972;2023-04-03T05:56:48;11.83;;;6.50;;
44746;SDS011;30472;49.490;10.972;2023-04-03T05:59:14;7.73;;;6.83;;
44746;SDS011;30472;49.490;10.972;2023-04-03T06:01:40;6.20;;;5.70;;
44746;SDS011;30472;49.490;10.972;2023-04-03T06:04:05;6.80;;;6.23;;
44746;SDS011;30472;49.490;10.972;2023-04-03T06:06:47;6.00;;;5.33;;
44746;SDS011;30472;49.490;10.972;2023-04-03T06:09:21;6.30;;;5.80;;
44746;SDS011;30472;49.490;10.972;2023-04-03T06:11:49;7.60;;;6.20;;
44746;SDS011;30472;49.490;10.972;2023-04-03T06:14:15;6.97;;;5.63;;
44746;SDS011;30472;49.490;10.972;2023-04-03T06:16:40;6.50;;;5.93;;
44746;SDS011;30472;49.490;10.972;2023-04-03T06:19:07;6.73;;;6.07;;
44746;SDS011;30472;49.490;10.972;2023-04-03T06:21:33;6.80;;;6.10;;
44746;SDS011;30472;49.490;10.972;2023-04-03T06:24:00;6.03;;;5.53;;
44746;SDS011;30472;49.490;10.972;2023-04-03T06:26:27;4.97;;;4.57;;
44746;SDS011;30472;49.490;10.972;2023-04-03T06:28:53;6.40;;;5.80;;
44746;SDS011;30472;49.490;10.972;2023-04-03T06:31:19;7.60;;;4.90;;
44746;SDS011;30472;49.490;10.972;2023-04-03T06:33:44;6.40;;;5.47;;
44746;SDS011;30472;49.490;10.972;2023-04-03T06:36:10;5.53;;;5.07;;
44746;SDS011;30472;49.490;10.972;2023-04-03T06:38:37;6.10;;;5.50;;
44746;SDS011;30472;49.490;10.972;2023-04-03T06:41:03;6.10;;;5.50;;
44746;SDS011;30472;49.490;10.972;2023-04-03T06:43:29;5.57;;;5.10;;
44746;SDS011;30472;49.490;10.972;2023-04-03T06:45:56;5.23;;;4.83;;
44746;SDS011;30472;49.490;10.972;2023-04-03T06:48:22;7.40;;;5.17;;
44746;SDS011;30472;49.490;10.972;2023-04-03T06:50:48;6.77;;;5.20;;
44746;SDS011;30472;49.490;10.972;2023-04-03T06:53:13;5.20;;;4.80;;
44746;SDS011;30472;49.490;10.972;2023-04-03T06:55:39;6.63;;;5.30;;
44746;SDS011;30472;49.490;10.972;2023-04-03T06:58:06;5.20;;;4.80;;
44746;SDS011;30472;49.490;10.972;2023-04-03T07:00:32;6.73;;;5.13;;
44746;SDS011;30472;49.490;10.972;2023-04-03T07:02:58;6.07;;;5.37;;
44746;SDS011;30472;49.490;10.972;2023-04-03T07:05:24;4.87;;;4.23;;
44746;SDS011;30472;49.490;10.972;2023-04-03T07:07:51;4.37;;;4.07;;
44746;SDS011;30472;49.490;10.972;2023-04-03T07:10:17;5.27;;;4.87;;
44746;SDS011;30472;49.490;10.972;2023-04-03T07:12:43;6.27;;;4.70;;
44746;SDS011;30472;49.490;10.972;2023-04-03T07:15:08;5.07;;;4.57;;
44746;SDS011;30472;49.490;10.972;2023-04-03T07:17:35;5.50;;;4.97;;
44746;SDS011;30472;49.490;10.972;2023-04-03T07:20:01;6.57;;;4.13;;
44746;SDS011;30472;49.490;10.972;2023-04-03T07:22:28;5.27;;;4.83;;
44746;SDS011;30472;49.490;10.972;2023-04-03T07:24:54;4.97;;;4.37;;
44746;SDS011;30472;49.490;10.972;2023-04-03T07:27:20;6.97;;;4.53;;
44746;SDS011;30472;49.490;10.972;2023-04-03T07:29:45;5.07;;;4.57;;
44746;SDS011;30472;49.490;10.972;2023-04-03T07:32:13;4.10;;;3.70;;
44746;SDS011;30472;49.490;10.972;2023-04-03T07:34:40;6.00;;;4.30;;
44746;SDS011;30472;49.490;10.972;2023-04-03T07:37:05;4.63;;;4.23;;
44746;SDS011;30472;49.490;10.972;2023-04-03T07:39:32;4.67;;;3.90;;
44746;SDS011;30472;49.490;10.972;2023-04-03T07:41:57;6.43;;;4.10;;
44746;SDS011;30472;49.490;10.972;2023-04-03T07:44:23;7.77;;;4.57;;
44746;SDS011;30472;49.490;10.972;2023-04-03T07:46:49;7.23;;;3.90;;
44746;SDS011;30472;49.490;10.972;2023-04-03T07:49:15;4.80;;;3.53;;
44746;SDS011;30472;49.490;10.972;2023-04-03T07:51:43;6.23;;;3.90;;
44746;SDS011;30472;49.490;10.972;2023-04-03T07:54:09;9.03;;;3.67;;
44746;SDS011;30472;49.490;10.972;2023-04-03T07:56:35;4.70;;;3.53;;
44746;SDS011;30472;49.490;10.972;2023-04-03T07:59:00;4.00;;;3.63;;
44746;SDS011;30472;49.490;10.972;2023-04-03T08:01:26;3.83;;;3.47;;
44746;SDS011;30472;49.490;10.972;2023-04-03T08:03:52;4.63;;;3.90;;
44746;SDS011;30472;49.490;10.972;2023-04-03T08:06:18;3.83;;;3.40;;
44746;SDS011;30472;49.490;10.972;2023-04-03T08:08:43;6.53;;;3.10;;
44746;SDS011;30472;49.490;10.972;2023-04-03T08:11:10;4.50;;;2.80;;
44746;SDS011;30472;49.490;10.972;2023-04-03T08:13:36;4.83;;;3.30;;
44746;SDS011;30472;49.490;10.972;2023-04-03T08:16:09;4.10;;;2.77;;
44746;SDS011;30472;49.490;10.972;2023-04-03T08:18:40;4.10;;;2.77;;
44746;SDS011;30472;49.490;10.972;2023-04-03T08:21:06;3.90;;;3.50;;
44746;SDS011;30472;49.490;10.972;2023-04-03T08:23:33;4.17;;;2.80;;
44746;SDS011;30472;49.490;10.972;2023-04-03T08:25:59;2.87;;;2.63;;
44746;SDS011;30472;49.490;10.972;2023-04-03T08:28:31;6.40;;;3.17;;
44746;SDS011;30472;49.490;10.972;2023-04-03T08:31:01;4.10;;;3.10;;
44746;SDS011;30472;49.490;10.972;2023-04-03T08:33:28;3.97;;;2.70;;
44746;SDS011;30472;49.490;10.972;2023-04-03T08:35:53;5.03;;;2.87;;
44746;SDS011;30472;49.490;10.972;2023-04-03T08:38:19;3.30;;;2.33;;
44746;SDS011;30472;49.490;10.972;2023-04-03T08:40:44;4.37;;;2.30;;
44746;SDS011;30472;49.490;10.972;2023-04-03T08:45:49;3.87;;;2.57;;
44746;SDS011;30472;49.490;10.972;2023-04-03T08:48:29;3.37;;;2.43;;
44746;SDS011;30472;49.490;10.972;2023-04-03T08:50:59;3.50;;;2.17;;
44746;SDS011;30472;49.490;10.972;2023-04-03T08:53:30;2.60;;;1.80;;
44746;SDS011;30472;49.490;10.972;2023-04-03T08:55:58;3.53;;;2.20;;
44746;SDS011;30472;49.490;10.972;2023-04-03T08:58:31;4.50;;;1.87;;
44746;SDS011;30472;49.490;10.972;2023-04-03T09:01:12;5.07;;;1.95;;
44746;SDS011;30472;49.490;10.972;2023-04-03T09:03:45;3.45;;;2.08;;
44746;SDS011;30472;49.490;10.972;2023-04-03T09:06:20;3.17;;;1.85;;
44746;SDS011;30472;49.490;10.972;2023-04-03T09:14:23;3.92;;;1.77;;
44746;SDS011;30472;49.490;10.972;2023-04-03T09:24:45;2.90;;;1.80;;
44746;SDS011;30472;49.490;10.972;2023-04-03T09:27:15;3.93;;;2.20;;
44746;SDS011;30472;49.490;10.972;2023-04-03T09:29:43;2.67;;;1.83;;
44746;SDS011;30472;49.490;10.972;2023-04-03T09:34:57;6.10;;;2.73;;
44746;SDS011;30472;49.490;10.972;2023-04-03T09:42:55;4.20;;;2.33;;
44746;SDS011;30472;49.490;10.972;2023-04-03T09:45:25;3.73;;;2.30;;
44746;SDS011;30472;49.490;10.972;2023-04-03T09:48:04;4.00;;;2.50;;
44746;SDS011;30472;49.490;10.972;2023-04-03T09:50:33;3.73;;;2.37;;
44746;SDS011;30472;49.490;10.972;2023-04-03T09:53:04;3.10;;;2.33;;
44746;SDS011;30472;49.490;10.972;2023-04-03T09:55:33;5.07;;;2.50;;
44746;SDS011;30472;49.490;10.972;2023-04-03T09:58:22;4.90;;;2.47;;
44746;SDS011;30472;49.490;10.972;2023-04-03T10:00:57;3.73;;;2.73;;
44746;SDS011;30472;49.490;10.972;2023-04-03T10:03:32;3.90;;;2.33;;
44746;SDS011;30472;49.490;10.972;2023-04-03T10:06:04;3.67;;;1.93;;
44746;SDS011;30472;49.490;10.972;2023-04-03T10:09:03;4.40;;;2.57;;
44746;SDS011;30472;49.490;10.972;2023-04-03T10:11:31;3.40;;;2.17;;
44746;SDS011;30472;49.490;10.972;2023-04-03T10:13:58;3.87;;;2.40;;
44746;SDS011;30472;49.490;10.972;2023-04-03T10:25:36;2.70;;;1.70;;
44746;SDS011;30472;49.490;10.972;2023-04-03T10:28:10;3.53;;;2.10;;
44746;SDS011;30472;49.490;10.972;2023-04-03T10:30:53;3.63;;;2.03;;
44746;SDS011;30472;49.490;10.972;2023-04-03T10:36:25;2.50;;;1.90;;
44746;SDS011;30472;49.490;10.972;2023-04-03T10:44:40;3.53;;;2.37;;
44746;SDS011;30472;49.490;10.972;2023-04-03T10:47:21;4.03;;;2.53;;
44746;SDS011;30472;49.490;10.972;2023-04-03T10:52:57;3.20;;;2.23;;
44746;SDS011;30472;49.490;10.972;2023-04-03T10:55:43;3.50;;;2.33;;
44746;SDS011;30472;49.490;10.972;2023-04-03T11:01:06;2.77;;;2.10;;
44746;SDS011;30472;49.490;10.972;2023-04-03T11:03:38;3.70;;;2.20;;
44746;SDS011;30472;49.490;10.972;2023-04-03T11:06:08;3.23;;;2.20;;
44746;SDS011;30472;49.490;10.972;2023-04-03T11:08:42;4.40;;;2.40;;
44746;SDS011;30472;49.490;10.972;2023-04-03T11:11:24;3.03;;;2.13;;
44746;SDS011;30472;49.490;10.972;2023-04-03T11:14:03;3.63;;;2.20;;
44746;SDS011;30472;49.490;10.972;2023-04-03T11:16:40;10.07;;;2.33;;
44746;SDS011;30472;49.490;10.972;2023-04-03T11:21:41;2.50;;;2.03;;
44746;SDS011;30472;49.490;10.972;2023-04-03T11:24:21;3.07;;;2.47;;
44746;SDS011;30472;49.490;10.972;2023-04-03T11:26:52;3.60;;;2.00;;
44746;SDS011;30472;49.490;10.972;2023-04-03T11:29:21;3.40;;;2.27;;
44746;SDS011;30472;49.490;10.972;2023-04-03T11:32:17;3.13;;;1.80;;
44746;SDS011;30472;49.490;10.972;2023-04-03T11:35:08;2.33;;;1.90;;
44746;SDS011;30472;49.490;10.972;2023-04-03T11:37:38;3.13;;;2.43;;
44746;SDS011;30472;49.490;10.972;2023-04-03T11:42:40;3.77;;;2.10;;
44746;SDS011;30472;49.490;10.972;2023-04-03T11:55:41;3.20;;;2.10;;
44746;SDS011;30472;49.490;10.972;2023-04-03T11:58:14;2.63;;;2.10;;
44746;SDS011;30472;49.490;10.972;2023-04-03T12:05:50;4.43;;;2.57;;
44746;SDS011;30472;49.490;10.972;2023-04-03T12:08:26;2.50;;;2.17;;
44746;SDS011;30472;49.490;10.972;2023-04-03T12:13:37;2.17;;;1.97;;
44746;SDS011;30472;49.490;10.972;2023-04-03T12:16:29;2.80;;;1.80;;
44746;SDS011;30472;49.490;10.972;2023-04-03T12:19:47;2.73;;;1.97;;
44746;SDS011;30472;49.490;10.972;2023-04-03T12:24:58;3.43;;;1.90;;
44746;SDS011;30472;49.490;10.972;2023-04-03T12:38:22;3.73;;;2.03;;
44746;SDS011;30472;49.490;10.972;2023-04-03T12:40:53;2.37;;;2.10;;
44746;SDS011;30472;49.490;10.972;2023-04-03T12:43:28;2.60;;;1.50;;
44746;SDS011;30472;49.490;10.972;2023-04-03T12:46:15;1.73;;;1.63;;
44746;SDS011;30472;49.490;10.972;2023-04-03T12:51:09;4.53;;;2.10;;
44746;SDS011;30472;49.490;10.972;2023-04-03T12:54:00;2.13;;;1.90;;
44746;SDS011;30472;49.490;10.972;2023-04-03T12:56:29;3.07;;;2.47;;
44746;SDS011;30472;49.490;10.972;2023-04-03T12:59:12;2.00;;;1.70;;
44746;SDS011;30472;49.490;10.972;2023-04-03T13:01:41;2.20;;;1.97;;
44746;SDS011;30472;49.490;10.972;2023-04-03T13:04:09;2.00;;;1.70;;
44746;SDS011;30472;49.490;10.972;2023-04-03T13:06:41;2.90;;;1.90;;
44746;SDS011;30472;49.490;10.972;2023-04-03T13:12:13;3.33;;;2.17;;
44746;SDS011;30472;49.490;10.972;2023-04-03T13:14:49;2.40;;;1.73;;
44746;SDS011;30472;49.490;10.972;2023-04-03T13:17:20;2.43;;;1.90;;
44746;SDS011;30472;49.490;10.972;2023-04-03T13:19:47;4.70;;;1.87;;
44746;SDS011;30472;49.490;10.972;2023-04-03T13:24:51;4.17;;;2.17;;
44746;SDS011;30472;49.490;10.972;2023-04-03T13:27:18;2.50;;;2.30;;
44746;SDS011;30472;49.490;10.972;2023-04-03T13:29:48;2.97;;;2.20;;
44746;SDS011;30472;49.490;10.972;2023-04-03T13:32:18;6.13;;;4.03;;
44746;SDS011;30472;49.490;10.972;2023-04-03T13:34:46;3.00;;;1.90;;
44746;SDS011;30472;49.490;10.972;2023-04-03T13:37:52;3.80;;;2.60;;
44746;SDS011;30472;49.490;10.972;2023-04-03T13:42:33;7.53;;;4.23;;
44746;SDS011;30472;49.490;10.972;2023-04-03T13:47:49;10.17;;;5.20;;
44746;SDS011;30472;49.490;10.972;2023-04-03T13:50:18;4.27;;;2.87;;
44746;SDS011;30472;49.490;10.972;2023-04-03T13:52:54;2.67;;;2.00;;
44746;SDS011;30472;49.490;10.972;2023-04-03T13:55:32;2.93;;;2.13;;
44746;SDS011;30472;49.490;10.972;2023-04-03T13:58:02;3.40;;;2.03;;
44746;SDS011;30472;49.490;10.972;2023-04-03T14:00:33;13.50;;;6.27;;
44746;SDS011;30472;49.490;10.972;2023-04-03T14:04:10;10.03;;;3.67;;
44746;SDS011;30472;49.490;10.972;2023-04-03T14:06:06;3.00;;;1.93;;
44746;SDS011;30472;49.490;10.972;2023-04-03T14:08:34;2.60;;;1.67;;
44746;SDS011;30472;49.490;10.972;2023-04-03T14:11:00;2.90;;;2.20;;
44746;SDS011;30472;49.490;10.972;2023-04-03T14:13:26;3.10;;;1.80;;
44746;SDS011;30472;49.490;10.972;2023-04-03T14:15:51;2.00;;;1.80;;
44746;SDS011;30472;49.490;10.972;2023-04-03T14:18:19;2.73;;;1.80;;
44746;SDS011;30472;49.490;10.972;2023-04-03T14:20:45;5.77;;;2.00;;
44746;SDS011;30472;49.490;10.972;2023-04-03T14:23:12;3.47;;;2.10;;
44746;SDS011;30472;49.490;10.972;2023-04-03T14:25:37;2.67;;;1.70;;
44746;SDS011;30472;49.490;10.972;2023-04-03T14:28:12;2.00;;;1.70;;
44746;SDS011;30472;49.490;10.972;2023-04-03T14:30:44;3.87;;;1.93;;
44746;SDS011;30472;49.490;10.972;2023-04-03T14:33:13;2.77;;;2.20;;
44746;SDS011;30472;49.490;10.972;2023-04-03T14:35:40;2.70;;;1.80;;
44746;SDS011;30472;49.490;10.972;2023-04-03T14:38:12;2.73;;;1.93;;
44746;SDS011;30472;49.490;10.972;2023-04-03T14:40:50;2.77;;;1.93;;
44746;SDS011;30472;49.490;10.972;2023-04-03T14:43:16;3.77;;;2.00;;
44746;SDS011;30472;49.490;10.972;2023-04-03T14:45:43;2.40;;;1.90;;
44746;SDS011;30472;49.490;10.972;2023-04-03T14:48:10;3.50;;;2.10;;
44746;SDS011;30472;49.490;10.972;2023-04-03T14:50:46;2.13;;;1.87;;
44746;SDS011;30472;49.490;10.972;2023-04-03T14:53:12;3.77;;;2.00;;
44746;SDS011;30472;49.490;10.972;2023-04-03T14:55:39;2.33;;;1.40;;
44746;SDS011;30472;49.490;10.972;2023-04-03T14:58:14;3.90;;;2.17;;
44746;SDS011;30472;49.490;10.972;2023-04-03T15:00:41;2.97;;;2.10;;
44746;SDS011;30472;49.490;10.972;2023-04-03T15:03:25;4.03;;;2.07;;
44746;SDS011;30472;49.490;10.972;2023-04-03T15:05:51;2.93;;;2.20;;
44746;SDS011;30472;49.490;10.972;2023-04-03T15:08:23;2.20;;;2.00;;
44746;SDS011;30472;49.490;10.972;2023-04-03T15:10:51;2.77;;;2.00;;
44746;SDS011;30472;49.490;10.972;2023-04-03T15:13:17;4.23;;;2.40;;
44746;SDS011;30472;49.490;10.972;2023-04-03T15:15:44;2.77;;;2.20;;
44746;SDS011;30472;49.490;10.972;2023-04-03T15:18:11;2.37;;;2.17;;
44746;SDS011;30472;49.490;10.972;2023-04-03T15:20:41;3.13;;;2.10;;
44746;SDS011;30472;49.490;10.972;2023-04-03T15:23:08;3.63;;;2.67;;
44746;SDS011;30472;49.490;10.972;2023-04-03T15:25:35;2.47;;;2.27;;
44746;SDS011;30472;49.490;10.972;2023-04-03T15:28:01;2.40;;;2.20;;
44746;SDS011;30472;49.490;10.972;2023-04-03T15:30:27;2.03;;;1.90;;
44746;SDS011;30472;49.490;10.972;2023-04-03T15:32:52;2.47;;;2.23;;
44746;SDS011;30472;49.490;10.972;2023-04-03T15:35:18;3.33;;;2.30;;
44746;SDS011;30472;49.490;10.972;2023-04-03T15:37:43;4.27;;;3.03;;
44746;SDS011;30472;49.490;10.972;2023-04-03T15:40:09;5.23;;;2.27;;
44746;SDS011;30472;49.490;10.972;2023-04-03T15:42:35;2.53;;;2.33;;
44746;SDS011;30472;49.490;10.972;2023-04-03T15:45:01;4.00;;;2.40;;
44746;SDS011;30472;49.490;10.972;2023-04-03T15:47:27;5.00;;;2.73;;
44746;SDS011;30472;49.490;10.972;2023-04-03T15:49:53;3.77;;;2.47;;
44746;SDS011;30472;49.490;10.972;2023-04-03T15:52:19;5.43;;;2.90;;
44746;SDS011;30472;49.490;10.972;2023-04-03T15:54:45;2.33;;;2.20;;
44746;SDS011;30472;49.490;10.972;2023-04-03T15:57:10;2.80;;;2.60;;
44746;SDS011;30472;49.490;10.972;2023-04-03T15:59:36;4.80;;;2.90;;
44746;SDS011;30472;49.490;10.972;2023-04-03T16:02:01;4.90;;;2.67;;
44746;SDS011;30472;49.490;10.972;2023-04-03T16:04:30;3.80;;;2.53;;
44746;SDS011;30472;49.490;10.972;2023-04-03T16:06:56;3.40;;;2.10;;
44746;SDS011;30472;49.490;10.972;2023-04-03T16:09:21;4.23;;;2.20;;
44746;SDS011;30472;49.490;10.972;2023-04-03T16:11:47;4.10;;;3.00;;
44746;SDS011;30472;49.490;10.972;2023-04-03T16:14:13;3.90;;;2.50;;
44746;SDS011;30472;49.490;10.972;2023-04-03T16:16:38;2.33;;;2.13;;
44746;SDS011;30472;49.490;10.972;2023-04-03T16:19:04;2.67;;;2.43;;
44746;SDS011;30472;49.490;10.972;2023-04-03T16:21:31;2.90;;;2.60;;
44746;SDS011;30472;49.490;10.972;2023-04-03T16:23:58;2.53;;;2.33;;
44746;SDS011;30472;49.490;10.972;2023-04-03T16:26:24;2.63;;;2.43;;
44746;SDS011;30472;49.490;10.972;2023-04-03T16:28:50;4.03;;;2.83;;